Time;durP1;ratioP1;P1;durP2;ratioP2;P2;SDS_P1;SDS_P2;PMS_P1;PMS_P2;Temp;Humidity;BMP_temperature;BMP_pressure;BME280_temperature;BME280_humidity;BME280_pressure;Samples;Min_cycle;Max_cycle;Signal;HPM_P1;HPM_P2
2022/03/29 00:01:37;;;;;;;;;;;;;;;;;;4205325;28;1179;-60
2022/03/29 00:03:58;;;;;;;;;;;;;;;;;;4232441;28;1252;-60
2022/03/29 00:06:19;;;;;;;;;;;;;;;;;;4219867;28;1058;-59
2022/03/29 00:08:39;;;;;;;;;;;;;;;;;;4222052;28;1917;-59
2022/03/29 00:11:00;;;;;;;;;;;;;;;;;;4220795;28;1114;-59
2022/03/29 00:13:20;;;;;;;;;;;;;;;;;;4222342;28;835;-59
2022/03/29 00:15:41;;;;;;;;;;;;;;;;;;4221972;28;980;-59
2022/03/29 00:18:39;;;;;;;;;;;;;;;;;;4221407;28;840;-59
2022/03/29 00:21:18;;;;;;;;;;;;;;;;;;4221694;28;992;-58
2022/03/29 00:23:38;;;;;;;;;;;;;;;;;;4221774;28;857;-59
2022/03/29 00:25:59;;;;;;;;;;;;;;;;;;4221728;28;977;-59
2022/03/29 00:28:20;;;;;;;;;;;;;;;;;;4221793;28;1910;-61
2022/03/29 00:30:41;;;;;;;;;;;;;;;;;;4221824;28;1327;-61
2022/03/29 00:33:02;;;;;;;;;;;;;;;;;;4221811;28;960;-61
2022/03/29 00:35:24;;;;;;;;;;;;;;;;;;4221528;28;980;-60
2022/03/29 00:37:45;;;;;;;;;;;;;;;;;;4221331;28;1082;-61
2022/03/29 00:40:06;;;;;;;;;;;;;;;;;;4221068;28;1204;-61
2022/03/29 00:42:27;;;;;;;;;;;;;;;;;;4221154;28;1104;-61
2022/03/29 00:44:47;;;;;;;;;;;;;;;;;;4221644;28;969;-61
2022/03/29 00:47:08;;;;;;;;;;;;;;;;;;4220640;28;837;-61
2022/03/29 00:49:29;;;;;;;;;;;;;;;;;;4221318;28;1918;-61
2022/03/29 00:51:50;;;;;;;;;;;;;;;;;;4221443;28;1126;-61
2022/03/29 00:54:11;;;;;;;;;;;;;;;;;;4221353;28;976;-61
2022/03/29 00:56:33;;;;;;;;;;;;;;;;;;4221538;28;1152;-62
2022/03/29 00:58:54;;;;;;;;;;;;;;;;;;4220592;28;962;-61
2022/03/29 01:04:04;;;;;;;;;;;;;;;;;;4216336;28;1081;-61
2022/03/29 01:06:24;;;;;;;;;;;;;;;;;;4220933;28;1094;-62
2022/03/29 01:08:45;;;;;;;;;;;;;;;;;;4220818;28;1934;-61
2022/03/29 01:11:06;;;;;;;;;;;;;;;;;;4220770;28;1255;-61
2022/03/29 01:13:27;;;;;;;;;;;;;;;;;;4220536;28;1138;-62
2022/03/29 01:15:49;;;;;;;;;;;;;;;;;;4220758;28;1321;-61
2022/03/29 01:18:08;;;;;;;;;;;;;;;;;;4219268;28;1251;-61
2022/03/29 01:20:29;;;;;;;;;;;;;;;;;;4220043;28;1089;-61
2022/03/29 01:22:50;;;;;;;;;;;;;;;;;;4203272;28;1097;-62
2022/03/29 01:25:11;;;;;;;;;;;;;;;;;;4211705;28;1171;-60
2022/03/29 01:27:32;;;;;;;;;;;;;;;;;;4220058;28;1509;-61
2022/03/29 01:29:52;;;;;;;;;;;;;;;;;;4220621;28;1909;-60
2022/03/29 01:32:13;;;;;;;;;;;;;;;;;;4202603;28;1290;-60
2022/03/29 01:34:34;;;;;;;;;;;;;;;;;;4203478;28;1065;-60
2022/03/29 01:36:54;;;;;;;;;;;;;;;;;;4203448;28;1161;-60
2022/03/29 01:39:16;;;;;;;;;;;;;;;;;;4203328;28;1361;-60
2022/03/29 01:41:38;;;;;;;;;;;;;;;;;;4204604;28;1122;-60
2022/03/29 01:43:59;;;;;;;;;;;;;;;;;;4220453;28;1319;-61
2022/03/29 01:46:20;;;;;;;;;;;;;;;;;;4220510;28;1082;-61
2022/03/29 01:48:41;;;;;;;;;;;;;;;;;;4220645;28;1988;-61
2022/03/29 01:51:02;;;;;;;;;;;;;;;;;;4220999;28;922;-59
2022/03/29 01:53:23;;;;;;;;;;;;;;;;;;4220615;28;1042;-60
2022/03/29 01:55:45;;;;;;;;;;;;;;;;;;4220839;28;1028;-60
2022/03/29 01:58:05;;;;;;;;;;;;;;;;;;4220468;28;942;-61
2022/03/29 02:00:33;;;;;;;;;;;;;;;;;;4220109;28;1060;-60
2022/03/29 02:02:55;;;;;;;;;;;;;;;;;;4220837;28;985;-60
2022/03/29 02:05:15;;;;;;;;;;;;;;;;;;4220062;28;977;-61
2022/03/29 02:07:36;;;;;;;;;;;;;;;;;;4216236;28;988;-61
2022/03/29 02:09:57;;;;;;;;;;;;;;;;;;4203773;28;1917;-61
2022/03/29 02:12:18;;;;;;;;;;;;;;;;;;4203762;28;1049;-60
2022/03/29 02:14:39;;;;;;;;;;;;;;;;;;4203758;28;1130;-61
2022/03/29 02:16:59;;;;;;;;;;;;;;;;;;4203765;28;1099;-61
2022/03/29 02:19:20;;;;;;;;;;;;;;;;;;4203526;28;1288;-60
2022/03/29 02:21:41;;;;;;;;;;;;;;;;;;4203479;28;1195;-61
2022/03/29 02:24:02;;;;;;;;;;;;;;;;;;4203383;28;973;-60
2022/03/29 02:26:22;;;;;;;;;;;;;;;;;;4217091;28;995;-60
2022/03/29 02:28:43;;;;;;;;;;;;;;;;;;4219809;28;1017;-61
2022/03/29 02:31:04;;;;;;;;;;;;;;;;;;4218559;28;1149;-61
2022/03/29 02:33:24;;;;;;;;;;;;;;;;;;4220161;28;1012;-60
2022/03/29 02:35:45;;;;;;;;;;;;;;;;;;4219888;28;1422;-61
2022/03/29 02:38:07;;;;;;;;;;;;;;;;;;4219965;28;1167;-60
2022/03/29 02:40:28;;;;;;;;;;;;;;;;;;4220075;28;1060;-61
2022/03/29 02:42:49;;;;;;;;;;;;;;;;;;4219716;28;1217;-62
2022/03/29 02:45:10;;;;;;;;;;;;;;;;;;4220073;28;1452;-61
2022/03/29 02:47:30;;;;;;;;;;;;;;;;;;4218687;28;982;-61
2022/03/29 02:49:51;;;;;;;;;;;;;;;;;;4218555;28;1909;-60
2022/03/29 02:52:11;;;;;;;;;;;;;;;;;;4218954;28;845;-60
2022/03/29 02:54:32;;;;;;;;;;;;;;;;;;4219943;28;932;-61
2022/03/29 02:56:53;;;;;;;;;;;;;;;;;;4218445;28;1009;-60
2022/03/29 02:59:13;;;;;;;;;;;;;;;;;;4219574;28;923;-60
2022/03/29 03:01:34;;;;;;;;;;;;;;;;;;4218997;28;965;-60
2022/03/29 03:03:55;;;;;;;;;;;;;;;;;;4218548;28;981;-60
2022/03/29 03:06:15;;;;;;;;;;;;;;;;;;4219586;28;1095;-60
2022/03/29 03:08:36;;;;;;;;;;;;;;;;;;4219750;28;954;-60
2022/03/29 03:10:57;;;;;;;;;;;;;;;;;;4221784;28;1965;-60
2022/03/29 03:13:17;;;;;;;;;;;;;;;;;;4222628;28;1406;-60
2022/03/29 03:15:38;;;;;;;;;;;;;;;;;;4223075;28;872;-60
2022/03/29 03:17:59;;;;;;;;;;;;;;;;;;4221730;28;924;-60
2022/03/29 03:20:21;;;;;;;;;;;;;;;;;;4222988;28;989;-60
2022/03/29 03:22:42;;;;;;;;;;;;;;;;;;4221924;28;1066;-60
2022/03/29 03:25:02;;;;;;;;;;;;;;;;;;4222829;28;795;-60
2022/03/29 03:27:23;;;;;;;;;;;;;;;;;;4222504;28;1045;-60
2022/03/29 03:29:44;;;;;;;;;;;;;;;;;;4222541;28;1980;-60
2022/03/29 03:32:04;;;;;;;;;;;;;;;;;;4222576;28;1093;-61
2022/03/29 03:34:25;;;;;;;;;;;;;;;;;;4222410;28;987;-60
2022/03/29 03:36:46;;;;;;;;;;;;;;;;;;4209902;28;2249;-60
2022/03/29 03:39:07;;;;;;;;;;;;;;;;;;4206425;28;896;-61
2022/03/29 03:41:27;;;;;;;;;;;;;;;;;;4205493;28;1333;-60
2022/03/29 03:43:48;;;;;;;;;;;;;;;;;;4206208;28;2176;-61
2022/03/29 03:46:09;;;;;;;;;;;;;;;;;;4246247;27;2192;-60
2022/03/29 03:48:29;;;;;;;;;;;;;;;;;;4205489;28;1022;-61
2022/03/29 03:50:50;;;;;;;;;;;;;;;;;;4220194;28;2035;-61
2022/03/29 03:53:11;;;;;;;;;;;;;;;;;;4222435;28;1003;-61
2022/03/29 03:55:32;;;;;;;;;;;;;;;;;;4220557;28;1127;-61
2022/03/29 03:57:52;;;;;;;;;;;;;;;;;;4220701;28;942;-62
2022/03/29 04:00:13;;;;;;;;;;;;;;;;;;4249922;27;1012;-61
2022/03/29 04:02:33;;;;;;;;;;;;;;;;;;4221863;28;938;-62
2022/03/29 04:04:54;;;;;;;;;;;;;;;;;;4222191;28;1084;-62
2022/03/29 04:07:15;;;;;;;;;;;;;;;;;;4221876;28;1303;-61
2022/03/29 04:09:36;;;;;;;;;;;;;;;;;;4222179;28;1978;-61
2022/03/29 04:11:57;;;;;;;;;;;;;;;;;;4221876;28;1233;-61
2022/03/29 04:14:18;;;;;;;;;;;;;;;;;;4221864;28;1240;-62
2022/03/29 04:16:39;;;;;;;;;;;;;;;;;;4221505;28;1149;-61
2022/03/29 04:18:59;;;;;;;;;;;;;;;;;;4221830;28;1191;-61
2022/03/29 04:21:20;;;;;;;;;;;;;;;;;;4221409;28;930;-61
2022/03/29 04:23:41;;;;;;;;;;;;;;;;;;4221600;28;1256;-62
2022/03/29 04:26:01;;;;;;;;;;;;;;;;;;4221865;28;956;-62
2022/03/29 04:28:22;;;;;;;;;;;;;;;;;;4221502;28;1082;-62
2022/03/29 04:30:43;;;;;;;;;;;;;;;;;;4222190;28;1988;-62
2022/03/29 04:33:04;;;;;;;;;;;;;;;;;;4221880;28;895;-60
2022/03/29 04:35:25;;;;;;;;;;;;;;;;;;4221931;28;942;-60
2022/03/29 04:37:45;;;;;;;;;;;;;;;;;;4220378;28;959;-61
2022/03/29 04:40:08;;;;;;;;;;;;;;;;;;4221739;28;1133;-60
2022/03/29 04:42:29;;;;;;;;;;;;;;;;;;4221567;28;1016;-62
2022/03/29 04:44:50;;;;;;;;;;;;;;;;;;4221827;28;911;-61
2022/03/29 04:47:11;;;;;;;;;;;;;;;;;;4221904;28;951;-62
2022/03/29 04:49:32;;;;;;;;;;;;;;;;;;4221288;28;1181;-64
2022/03/29 04:51:53;;;;;;;;;;;;;;;;;;4221444;28;1081;-62
2022/03/29 04:54:14;;;;;;;;;;;;;;;;;;4221700;28;1114;-60
2022/03/29 04:56:35;;;;;;;;;;;;;;;;;;4221382;28;1238;-58
2022/03/29 04:58:55;;;;;;;;;;;;;;;;;;4218035;28;4066;-57
2022/03/29 05:01:16;;;;;;;;;;;;;;;;;;4213764;28;1085;-58
2022/03/29 05:03:37;;;;;;;;;;;;;;;;;;4220420;28;1258;-54
2022/03/29 05:05:57;;;;;;;;;;;;;;;;;;4220080;28;1045;-54
2022/03/29 05:08:18;;;;;;;;;;;;;;;;;;4219623;28;2004;-52
2022/03/29 05:10:39;;;;;;;;;;;;;;;;;;4210221;28;1918;-53
2022/03/29 05:13:00;;;;;;;;;;;;;;;;;;4202953;28;1068;-53
2022/03/29 05:15:20;;;;;;;;;;;;;;;;;;4203370;28;1144;-53
2022/03/29 05:17:42;;;;;;;;;;;;;;;;;;4203887;28;1016;-54
2022/03/29 05:20:02;;;;;;;;;;;;;;;;;;4204102;28;1998;-54
2022/03/29 05:22:23;;;;;;;;;;;;;;;;;;4208834;28;996;-54
2022/03/29 05:24:44;;;;;;;;;;;;;;;;;;4204168;28;1159;-54
2022/03/29 05:27:05;;;;;;;;;;;;;;;;;;4204803;28;809;-54
2022/03/29 05:29:28;;;;;;;;;;;;;;;;;;4203301;28;1002;-54
2022/03/29 05:31:49;;;;;;;;;;;;;;;;;;4204648;28;2618;-53
2022/03/29 05:34:09;;;;;;;;;;;;;;;;;;4214433;28;1597;-53
2022/03/29 05:36:30;;;;;;;;;;;;;;;;;;4217992;28;1490;-53
2022/03/29 05:38:52;;;;;;;;;;;;;;;;;;4205319;28;2734;-52
2022/03/29 05:41:15;;;;;;;;;;;;;;;;;;4201514;28;1011;-52
2022/03/29 05:43:35;;;;;;;;;;;;;;;;;;4201378;28;981;-53
2022/03/29 05:48:53;;;;;;;;;;;;;;;;;;4202467;28;1145;-52
2022/03/29 05:51:14;;;;;;;;;;;;;;;;;;4201862;28;1906;-52
2022/03/29 05:53:34;;;;;;;;;;;;;;;;;;4203335;28;1064;-53
2022/03/29 05:55:56;;;;;;;;;;;;;;;;;;4202431;28;958;-53
2022/03/29 05:58:17;;;;;;;;;;;;;;;;;;4204282;28;829;-53
2022/03/29 06:00:38;;;;;;;;;;;;;;;;;;4203326;28;1208;-54
2022/03/29 06:02:58;;;;;;;;;;;;;;;;;;4203996;28;953;-53
2022/03/29 06:05:19;;;;;;;;;;;;;;;;;;4204052;28;837;-54
2022/03/29 06:07:40;;;;;;;;;;;;;;;;;;4234430;28;1286;-53
2022/03/29 06:10:01;;;;;;;;;;;;;;;;;;4237634;27;1101;-54
2022/03/29 06:12:22;;;;;;;;;;;;;;;;;;4237131;27;1307;-54
2022/03/29 06:14:43;;;;;;;;;;;;;;;;;;4237522;27;1012;-53
2022/03/29 06:17:04;;;;;;;;;;;;;;;;;;4236948;27;1351;-53
2022/03/29 06:19:25;;;;;;;;;;;;;;;;;;4236981;27;1070;-54
2022/03/29 06:21:46;;;;;;;;;;;;;;;;;;4237291;27;960;-53
2022/03/29 06:24:07;;;;;;;;;;;;;;;;;;4237055;27;1232;-54
2022/03/29 06:26:28;;;;;;;;;;;;;;;;;;4237323;28;1072;-53
2022/03/29 06:28:49;;;;;;;;;;;;;;;;;;4237420;27;1179;-53
2022/03/29 06:31:09;;;;;;;;;;;;;;;;;;4237254;27;1910;-54
2022/03/29 06:33:31;;;;;;;;;;;;;;;;;;4237305;27;964;-53
2022/03/29 06:35:52;;;;;;;;;;;;;;;;;;4237054;27;1288;-53
2022/03/29 06:38:12;;;;;;;;;;;;;;;;;;4237175;28;1015;-54
2022/03/29 06:40:33;;;;;;;;;;;;;;;;;;4237151;27;1019;-53
2022/03/29 06:42:55;;;;;;;;;;;;;;;;;;4237290;28;989;-53
2022/03/29 06:45:15;;;;;;;;;;;;;;;;;;4236209;27;925;-53
2022/03/29 06:47:36;;;;;;;;;;;;;;;;;;4237406;28;907;-53
2022/03/29 06:49:56;;;;;;;;;;;;;;;;;;4236716;27;937;-54
2022/03/29 06:52:17;;;;;;;;;;;;;;;;;;4236768;27;1909;-53
2022/03/29 06:54:38;;;;;;;;;;;;;;;;;;4235595;28;1138;-54
2022/03/29 06:56:59;;;;;;;;;;;;;;;;;;4236760;27;1174;-54
2022/03/29 06:59:19;;;;;;;;;;;;;;;;;;4237177;27;1086;-53
2022/03/29 07:01:40;;;;;;;;;;;;;;;;;;4236482;27;1270;-54
2022/03/29 07:04:03;;;;;;;;;;;;;;;;;;4236833;27;1057;-54
2022/03/29 07:06:25;;;;;;;;;;;;;;;;;;4237163;27;1157;-54
2022/03/29 07:11:22;;;;;;;;;;;;;;;;;;4236628;27;1980;-53
2022/03/29 07:13:44;;;;;;;;;;;;;;;;;;4236700;27;949;-54
2022/03/29 07:16:05;;;;;;;;;;;;;;;;;;4237124;28;1139;-54
2022/03/29 07:18:25;;;;;;;;;;;;;;;;;;4236724;27;977;-53
2022/03/29 07:20:46;;;;;;;;;;;;;;;;;;4236936;27;1241;-54
2022/03/29 07:23:07;;;;;;;;;;;;;;;;;;4236780;28;932;-54
2022/03/29 07:25:31;;;;;;;;;;;;;;;;;;4236503;27;982;-54
2022/03/29 07:27:53;;;;;;;;;;;;;;;;;;4236596;27;991;-53
2022/03/29 07:30:14;;;;;;;;;;;;;;;;;;4236943;28;937;-53
2022/03/29 07:32:35;;;;;;;;;;;;;;;;;;4236996;28;1976;-53
2022/03/29 07:34:55;;;;;;;;;;;;;;;;;;4236525;27;941;-54
2022/03/29 07:37:16;;;;;;;;;;;;;;;;;;4236449;27;1222;-53
2022/03/29 07:39:38;;;;;;;;;;;;;;;;;;4234745;28;954;-54
2022/03/29 07:41:59;;;;;;;;;;;;;;;;;;4236063;27;1082;-53
2022/03/29 07:44:20;;;;;;;;;;;;;;;;;;4235993;27;1102;-54
2022/03/29 07:46:41;;;;;;;;;;;;;;;;;;4236393;28;779;-53
2022/03/29 07:49:02;;;;;;;;;;;;;;;;;;4236191;27;1047;-53
2022/03/29 07:51:23;;;;;;;;;;;;;;;;;;4236133;27;1921;-53
2022/03/29 07:53:43;;;;;;;;;;;;;;;;;;4236351;27;1090;-54
2022/03/29 07:56:04;;;;;;;;;;;;;;;;;;4236893;28;1267;-54
2022/03/29 07:58:25;;;;;;;;;;;;;;;;;;4239087;28;1296;-54
2022/03/29 08:00:49;;;;;;;;;;;;;;;;;;4239057;27;880;-53
2022/03/29 08:03:10;;;;;;;;;;;;;;;;;;4239046;27;961;-53
2022/03/29 08:05:31;;;;;;;;;;;;;;;;;;4239174;27;1027;-54
2022/03/29 08:07:52;;;;;;;;;;;;;;;;;;4239002;27;938;-53
2022/03/29 08:10:12;;;;;;;;;;;;;;;;;;4239160;27;1080;-54
2022/03/29 08:12:33;;;;;;;;;;;;;;;;;;4237684;28;1992;-54
2022/03/29 08:14:54;;;;;;;;;;;;;;;;;;4238723;27;945;-54
2022/03/29 08:17:14;;;;;;;;;;;;;;;;;;4239361;27;1091;-54
2022/03/29 08:19:35;;;;;;;;;;;;;;;;;;4238817;27;1127;-53
2022/03/29 08:21:56;;;;;;;;;;;;;;;;;;4238990;27;1114;-53
2022/03/29 08:24:17;;;;;;;;;;;;;;;;;;4238726;27;1586;-52
2022/03/29 08:26:38;;;;;;;;;;;;;;;;;;4239081;27;983;-53
2022/03/29 08:28:58;;;;;;;;;;;;;;;;;;4238919;28;854;-53
2022/03/29 08:31:19;;;;;;;;;;;;;;;;;;4238645;27;1983;-52
2022/03/29 08:33:40;;;;;;;;;;;;;;;;;;4238608;27;1324;-52
2022/03/29 08:36:01;;;;;;;;;;;;;;;;;;4238400;27;1171;-53
2022/03/29 08:38:22;;;;;;;;;;;;;;;;;;4238529;27;1117;-52
2022/03/29 08:40:42;;;;;;;;;;;;;;;;;;4238623;27;965;-53
2022/03/29 08:43:05;;;;;;;;;;;;;;;;;;4238705;27;976;-53
2022/03/29 08:45:26;;;;;;;;;;;;;;;;;;4238454;27;1290;-53
2022/03/29 08:47:47;;;;;;;;;;;;;;;;;;4239120;27;997;-52
2022/03/29 08:50:07;;;;;;;;;;;;;;;;;;4238507;27;991;-53
2022/03/29 08:52:28;;;;;;;;;;;;;;;;;;4237889;27;1984;-52
2022/03/29 08:54:50;;;;;;;;;;;;;;;;;;4238458;27;1026;-52
2022/03/29 08:57:11;;;;;;;;;;;;;;;;;;4238364;27;936;-52
2022/03/29 08:59:32;;;;;;;;;;;;;;;;;;4238426;27;988;-53
2022/03/29 09:01:53;;;;;;;;;;;;;;;;;;4238426;27;1040;-52
2022/03/29 09:04:14;;;;;;;;;;;;;;;;;;4238534;27;1208;-53
2022/03/29 09:06:34;;;;;;;;;;;;;;;;;;4238087;27;988;-53
2022/03/29 09:08:56;;;;;;;;;;;;;;;;;;4237733;27;997;-53
2022/03/29 09:11:16;;;;;;;;;;;;;;;;;;4238175;27;934;-53
2022/03/29 09:13:37;;;;;;;;;;;;;;;;;;4237942;27;998;-53
2022/03/29 09:15:58;;;;;;;;;;;;;;;;;;4237780;27;1075;-53
2022/03/29 09:18:19;;;;;;;;;;;;;;;;;;4237963;27;1112;-52
2022/03/29 09:20:40;;;;;;;;;;;;;;;;;;4237895;27;1197;-54
2022/03/29 09:23:03;;;;;;;;;;;;;;;;;;4238123;27;1241;-53
2022/03/29 09:25:26;;;;;;;;;;;;;;;;;;4237870;27;1062;-53
2022/03/29 09:27:46;;;;;;;;;;;;;;;;;;4237885;27;982;-54
2022/03/29 09:30:07;;;;;;;;;;;;;;;;;;4237899;27;971;-53
2022/03/29 09:32:29;;;;;;;;;;;;;;;;;;4237950;28;1905;-54
2022/03/29 09:34:49;;;;;;;;;;;;;;;;;;4237592;27;1184;-53
2022/03/29 09:37:10;;;;;;;;;;;;;;;;;;4238156;28;1037;-53
2022/03/29 09:39:30;;;;;;;;;;;;;;;;;;4237841;28;909;-53
2022/03/29 09:41:51;;;;;;;;;;;;;;;;;;4237700;27;979;-53
2022/03/29 09:44:21;;;;;;;;;;;;;;;;;;4236709;28;1201;-53
2022/03/29 09:46:42;;;;;;;;;;;;;;;;;;4237652;27;1049;-54
2022/03/29 09:49:03;;;;;;;;;;;;;;;;;;4237470;27;1222;-54
2022/03/29 09:51:26;;;;;;;;;;;;;;;;;;4237645;27;1217;-53
2022/03/29 09:53:48;;;;;;;;;;;;;;;;;;4237689;27;1136;-54
2022/03/29 09:56:08;;;;;;;;;;;;;;;;;;4237540;27;1189;-53
2022/03/29 09:58:30;;;;;;;;;;;;;;;;;;4236365;28;1266;-53
2022/03/29 10:00:50;;;;;;;;;;;;;;;;;;4237810;28;1118;-54
2022/03/29 10:03:11;;;;;;;;;;;;;;;;;;4237274;27;1145;-54
2022/03/29 10:05:32;;;;;;;;;;;;;;;;;;4237659;28;884;-53
2022/03/29 10:09:25;;;;;;;;;;;;;;;;;;4236661;28;1333;-54
2022/03/29 10:10:33;;;;;;;;;;;;;;;;;;4237512;27;1170;-54
2022/03/29 10:12:54;;;;;;;;;;;;;;;;;;4237096;27;1918;-53
2022/03/29 10:15:15;;;;;;;;;;;;;;;;;;4237538;27;1018;-53
2022/03/29 10:17:36;;;;;;;;;;;;;;;;;;4237362;27;941;-53
2022/03/29 10:19:57;;;;;;;;;;;;;;;;;;4236239;27;948;-53
2022/03/29 10:22:17;;;;;;;;;;;;;;;;;;4237501;28;874;-54
2022/03/29 10:24:38;;;;;;;;;;;;;;;;;;4237638;27;1023;-53
2022/03/29 10:27:00;;;;;;;;;;;;;;;;;;4237528;28;1004;-53
2022/03/29 10:29:21;;;;;;;;;;;;;;;;;;4237636;28;1013;-53
2022/03/29 10:31:42;;;;;;;;;;;;;;;;;;4237429;27;1116;-54
2022/03/29 10:34:03;;;;;;;;;;;;;;;;;;4237144;27;1034;-54
2022/03/29 10:36:23;;;;;;;;;;;;;;;;;;4237185;27;962;-53
2022/03/29 10:38:44;;;;;;;;;;;;;;;;;;4237223;27;984;-54
2022/03/29 10:41:05;;;;;;;;;;;;;;;;;;4237360;28;1141;-53
2022/03/29 10:43:26;;;;;;;;;;;;;;;;;;4237042;27;1078;-54
2022/03/29 10:45:47;;;;;;;;;;;;;;;;;;4237032;27;1086;-53
2022/03/29 10:48:09;;;;;;;;;;;;;;;;;;4236971;27;1017;-54
2022/03/29 10:50:29;;;;;;;;;;;;;;;;;;4236908;27;981;-53
2022/03/29 10:52:50;;;;;;;;;;;;;;;;;;4237200;27;1905;-54
2022/03/29 10:55:11;;;;;;;;;;;;;;;;;;4236907;27;1062;-54
2022/03/29 10:57:34;;;;;;;;;;;;;;;;;;4237196;27;948;-53
2022/03/29 10:59:58;;;;;;;;;;;;;;;;;;4236558;27;1201;-54
2022/03/29 11:02:20;;;;;;;;;;;;;;;;;;4236874;28;754;-54
2022/03/29 11:04:40;;;;;;;;;;;;;;;;;;4236652;27;1155;-55
2022/03/29 11:07:01;;;;;;;;;;;;;;;;;;4236670;27;1283;-54
2022/03/29 11:09:22;;;;;;;;;;;;;;;;;;4237180;27;1224;-54
2022/03/29 11:11:44;;;;;;;;;;;;;;;;;;4236961;27;1291;-54
2022/03/29 11:14:06;;;;;;;;;;;;;;;;;;4237148;28;1918;-54
2022/03/29 11:16:26;;;;;;;;;;;;;;;;;;4236622;27;1031;-54
2022/03/29 11:18:47;;;;;;;;;;;;;;;;;;4236852;27;1049;-53
2022/03/29 11:21:08;;;;;;;;;;;;;;;;;;4236817;28;815;-53
2022/03/29 11:23:28;;;;;;;;;;;;;;;;;;4236885;27;1193;-53
2022/03/29 11:25:50;;;;;;;;;;;;;;;;;;4236754;27;960;-54
2022/03/29 11:28:10;;;;;;;;;;;;;;;;;;4236456;27;1070;-54
2022/03/29 11:30:31;;;;;;;;;;;;;;;;;;4236506;27;961;-54
2022/03/29 11:32:55;;;;;;;;;;;;;;;;;;4237935;28;1985;-54
2022/03/29 11:35:18;;;;;;;;;;;;;;;;;;4239078;27;1160;-54
2022/03/29 11:37:40;;;;;;;;;;;;;;;;;;4239689;27;988;-54
2022/03/29 11:40:00;;;;;;;;;;;;;;;;;;4239678;28;902;-54
2022/03/29 11:42:21;;;;;;;;;;;;;;;;;;4239586;27;1202;-54
2022/03/29 11:44:42;;;;;;;;;;;;;;;;;;4239333;28;943;-53
2022/03/29 11:47:03;;;;;;;;;;;;;;;;;;4238564;28;1193;-54
2022/03/29 11:49:26;;;;;;;;;;;;;;;;;;4239557;28;954;-54
2022/03/29 11:51:46;;;;;;;;;;;;;;;;;;4239699;28;827;-54
2022/03/29 11:54:07;;;;;;;;;;;;;;;;;;4239528;27;1998;-54
2022/03/29 11:56:28;;;;;;;;;;;;;;;;;;4239187;27;1035;-54
2022/03/29 11:58:48;;;;;;;;;;;;;;;;;;4239502;27;959;-53
2022/03/29 12:01:09;;;;;;;;;;;;;;;;;;4239043;27;1152;-54
2022/03/29 12:03:31;;;;;;;;;;;;;;;;;;4239622;27;1131;-54
2022/03/29 12:05:52;;;;;;;;;;;;;;;;;;4237849;28;1325;-54
2022/03/29 12:08:13;;;;;;;;;;;;;;;;;;4239424;28;879;-54
2022/03/29 12:10:34;;;;;;;;;;;;;;;;;;4239109;27;1220;-54
2022/03/29 12:12:55;;;;;;;;;;;;;;;;;;4238871;27;1980;-54
2022/03/29 12:15:19;;;;;;;;;;;;;;;;;;4239004;27;984;-54
2022/03/29 12:17:41;;;;;;;;;;;;;;;;;;4239233;28;931;-54
2022/03/29 12:20:02;;;;;;;;;;;;;;;;;;4239450;27;1074;-53
2022/03/29 12:22:23;;;;;;;;;;;;;;;;;;4238837;27;1014;-54
2022/03/29 12:24:44;;;;;;;;;;;;;;;;;;4238969;28;881;-54
2022/03/29 12:27:06;;;;;;;;;;;;;;;;;;4238618;27;988;-54
2022/03/29 12:29:27;;;;;;;;;;;;;;;;;;4234494;27;1235;-54
2022/03/29 12:31:48;;;;;;;;;;;;;;;;;;4221609;28;1230;-54
2022/03/29 12:34:08;;;;;;;;;;;;;;;;;;4221613;28;1930;-54
2022/03/29 12:36:29;;;;;;;;;;;;;;;;;;4222146;28;1300;-54
2022/03/29 12:38:51;;;;;;;;;;;;;;;;;;4220609;28;1232;-53
2022/03/29 12:41:12;;;;;;;;;;;;;;;;;;4221643;28;1160;-54
2022/03/29 12:43:35;;;;;;;;;;;;;;;;;;4220825;28;1156;-54
2022/03/29 12:45:55;;;;;;;;;;;;;;;;;;4222030;28;1211;-53
2022/03/29 12:48:21;;;;;;;;;;;;;;;;;;4222071;28;954;-54
2022/03/29 12:50:42;;;;;;;;;;;;;;;;;;4221643;28;953;-54
2022/03/29 12:53:02;;;;;;;;;;;;;;;;;;4221261;28;1989;-54
2022/03/29 12:55:23;;;;;;;;;;;;;;;;;;4221936;28;921;-54
2022/03/29 12:57:44;;;;;;;;;;;;;;;;;;4221394;28;948;-54
2022/03/29 13:00:04;;;;;;;;;;;;;;;;;;4221812;28;1045;-53
2022/03/29 13:02:25;;;;;;;;;;;;;;;;;;4221608;28;1167;-53
2022/03/29 13:04:45;;;;;;;;;;;;;;;;;;4221682;28;1252;-53
2022/03/29 13:07:06;;;;;;;;;;;;;;;;;;4221772;28;1160;-54
2022/03/29 13:09:27;;;;;;;;;;;;;;;;;;4221369;28;920;-53
2022/03/29 13:11:48;;;;;;;;;;;;;;;;;;4221243;28;1100;-54
2022/03/29 13:14:09;;;;;;;;;;;;;;;;;;4221378;28;1886;-54
2022/03/29 13:16:29;;;;;;;;;;;;;;;;;;4221270;28;1016;-54
2022/03/29 13:18:50;;;;;;;;;;;;;;;;;;4221387;28;1126;-54
2022/03/29 13:21:11;;;;;;;;;;;;;;;;;;4221356;28;962;-54
2022/03/29 13:23:32;;;;;;;;;;;;;;;;;;4220014;28;1031;-54
2022/03/29 13:25:52;;;;;;;;;;;;;;;;;;4221093;28;1128;-53
2022/03/29 13:28:13;;;;;;;;;;;;;;;;;;4221184;28;959;-54
2022/03/29 13:30:34;;;;;;;;;;;;;;;;;;4221302;28;1165;-54
2022/03/29 13:32:54;;;;;;;;;;;;;;;;;;4221078;28;968;-54
2022/03/29 13:35:16;;;;;;;;;;;;;;;;;;4221298;28;1290;-54
2022/03/29 13:37:36;;;;;;;;;;;;;;;;;;4221502;28;1020;-54
2022/03/29 13:39:57;;;;;;;;;;;;;;;;;;4220932;28;1075;-54
2022/03/29 13:42:17;;;;;;;;;;;;;;;;;;4221023;28;993;-54
2022/03/29 13:44:38;;;;;;;;;;;;;;;;;;4220733;28;1201;-54
2022/03/29 13:46:59;;;;;;;;;;;;;;;;;;4220896;28;997;-54
2022/03/29 13:49:25;;;;;;;;;;;;;;;;;;4220779;28;1412;-54
2022/03/29 13:51:45;;;;;;;;;;;;;;;;;;4220742;28;1098;-54
2022/03/29 13:54:06;;;;;;;;;;;;;;;;;;4220191;28;1983;-54
2022/03/29 13:56:31;;;;;;;;;;;;;;;;;;4220651;28;1129;-54
2022/03/29 13:58:51;;;;;;;;;;;;;;;;;;4220089;28;1111;-54
2022/03/29 14:01:12;;;;;;;;;;;;;;;;;;4220545;28;936;-54
2022/03/29 14:03:33;;;;;;;;;;;;;;;;;;4220808;28;1012;-53
2022/03/29 14:05:53;;;;;;;;;;;;;;;;;;4220873;28;1009;-54
2022/03/29 14:08:14;;;;;;;;;;;;;;;;;;4221013;28;877;-54
2022/03/29 14:10:35;;;;;;;;;;;;;;;;;;4220722;28;1203;-54
2022/03/29 14:12:55;;;;;;;;;;;;;;;;;;4220545;28;1251;-54
2022/03/29 14:15:16;;;;;;;;;;;;;;;;;;4220288;28;1052;-54
2022/03/29 14:17:37;;;;;;;;;;;;;;;;;;4220615;28;1232;-53
2022/03/29 14:19:58;;;;;;;;;;;;;;;;;;4229439;28;1410;-54
2022/03/29 14:22:18;;;;;;;;;;;;;;;;;;4237347;27;934;-53
2022/03/29 14:24:40;;;;;;;;;;;;;;;;;;4237012;27;1277;-54
2022/03/29 14:27:00;;;;;;;;;;;;;;;;;;4237241;27;988;-53
2022/03/29 14:29:21;;;;;;;;;;;;;;;;;;4237367;28;924;-54
2022/03/29 14:31:44;;;;;;;;;;;;;;;;;;4235616;28;1049;-54
2022/03/29 14:34:05;;;;;;;;;;;;;;;;;;4237259;27;1974;-54
2022/03/29 14:36:25;;;;;;;;;;;;;;;;;;4237281;27;1113;-54
2022/03/29 14:38:46;;;;;;;;;;;;;;;;;;4237213;27;1023;-54
2022/03/29 14:41:07;;;;;;;;;;;;;;;;;;4237173;27;1191;-54
2022/03/29 14:43:28;;;;;;;;;;;;;;;;;;4237358;28;950;-54
2022/03/29 14:45:48;;;;;;;;;;;;;;;;;;4237393;28;817;-54
2022/03/29 14:48:10;;;;;;;;;;;;;;;;;;4236946;27;1234;-54
2022/03/29 14:50:32;;;;;;;;;;;;;;;;;;4237381;28;1244;-54
2022/03/29 14:52:53;;;;;;;;;;;;;;;;;;4235859;28;1215;-54
2022/03/29 14:55:14;;;;;;;;;;;;;;;;;;4237340;27;1985;-54
2022/03/29 14:57:35;;;;;;;;;;;;;;;;;;4236876;27;965;-54
2022/03/29 14:59:56;;;;;;;;;;;;;;;;;;4237049;27;956;-53
2022/03/29 15:02:18;;;;;;;;;;;;;;;;;;4236698;27;996;-54
2022/03/29 15:04:39;;;;;;;;;;;;;;;;;;4237240;27;997;-53
2022/03/29 15:07:00;;;;;;;;;;;;;;;;;;4238521;27;1134;-54
2022/03/29 15:09:21;;;;;;;;;;;;;;;;;;4239939;27;1135;-54
2022/03/29 15:11:42;;;;;;;;;;;;;;;;;;4240093;28;1077;-53
2022/03/29 15:14:03;;;;;;;;;;;;;;;;;;4239583;27;1921;-53
2022/03/29 15:16:26;;;;;;;;;;;;;;;;;;4239361;27;989;-54
2022/03/29 15:18:47;;;;;;;;;;;;;;;;;;4239664;27;968;-53
2022/03/29 15:21:08;;;;;;;;;;;;;;;;;;4239651;27;992;-54
2022/03/29 15:23:28;;;;;;;;;;;;;;;;;;4239470;27;956;-53
2022/03/29 15:25:49;;;;;;;;;;;;;;;;;;4240010;28;885;-53
2022/03/29 15:28:10;;;;;;;;;;;;;;;;;;4239452;27;1112;-54
2022/03/29 15:30:31;;;;;;;;;;;;;;;;;;4239598;27;1048;-53
2022/03/29 15:32:51;;;;;;;;;;;;;;;;;;4239409;27;926;-53
2022/03/29 15:35:12;;;;;;;;;;;;;;;;;;4239401;27;1909;-54
2022/03/29 15:37:33;;;;;;;;;;;;;;;;;;4237954;28;1219;-53
2022/03/29 15:39:56;;;;;;;;;;;;;;;;;;4239928;28;920;-54
2022/03/29 15:42:17;;;;;;;;;;;;;;;;;;4239453;27;1039;-54
2022/03/29 15:44:37;;;;;;;;;;;;;;;;;;4239552;27;1025;-53
2022/03/29 15:46:58;;;;;;;;;;;;;;;;;;4239659;27;1019;-54
2022/03/29 15:49:19;;;;;;;;;;;;;;;;;;4239495;27;916;-53
2022/03/29 15:51:40;;;;;;;;;;;;;;;;;;4239619;28;1366;-53
2022/03/29 15:54:01;;;;;;;;;;;;;;;;;;4237989;28;1905;-53
2022/03/29 15:56:21;;;;;;;;;;;;;;;;;;4239473;27;1004;-54
2022/03/29 15:58:42;;;;;;;;;;;;;;;;;;4239601;27;1267;-54
2022/03/29 16:01:02;;;;;;;;;;;;;;;;;;4239220;27;1040;-53
2022/03/29 16:03:23;;;;;;;;;;;;;;;;;;4239262;27;1095;-53
2022/03/29 16:05:44;;;;;;;;;;;;;;;;;;4239135;27;1173;-54
2022/03/29 16:08:04;;;;;;;;;;;;;;;;;;4239165;27;996;-54
2022/03/29 16:10:26;;;;;;;;;;;;;;;;;;4225622;27;1300;-53
2022/03/29 16:12:46;;;;;;;;;;;;;;;;;;4222480;28;1063;-53
2022/03/29 16:15:07;;;;;;;;;;;;;;;;;;4222223;28;1988;-54
2022/03/29 16:17:28;;;;;;;;;;;;;;;;;;4222259;28;1179;-54
2022/03/29 16:19:48;;;;;;;;;;;;;;;;;;4222397;28;1178;-53
2022/03/29 16:22:09;;;;;;;;;;;;;;;;;;4222137;28;949;-54
2022/03/29 16:24:30;;;;;;;;;;;;;;;;;;4222324;28;1020;-55
2022/03/29 16:26:51;;;;;;;;;;;;;;;;;;4221962;28;1131;-53
2022/03/29 16:29:11;;;;;;;;;;;;;;;;;;4222102;28;957;-54
2022/03/29 16:31:36;;;;;;;;;;;;;;;;;;4222160;28;1078;-53
2022/03/29 16:33:57;;;;;;;;;;;;;;;;;;4221166;28;1181;-53